createdAt,value
2019-04-07T00:00:16.537Z,22.90
2019-04-07T00:02:45.253Z,20.80
2019-04-07T00:05:14.777Z,23.00
2019-04-07T00:07:43.647Z,20.97
2019-04-07T00:10:12.881Z,20.63
2019-04-07T00:12:41.447Z,21.60
2019-04-07T00:15:10.424Z,21.57
2019-04-07T00:17:39.170Z,23.47
2019-04-07T00:20:08.797Z,22.30
2019-04-07T00:22:38.007Z,26.83
2019-04-07T00:25:07.130Z,22.00
2019-04-07T00:27:35.767Z,21.10
2019-04-07T00:30:06.591Z,21.93
2019-04-07T00:32:35.135Z,20.60
2019-04-07T00:35:05.449Z,22.33
2019-04-07T00:37:34.185Z,22.97
2019-04-07T00:40:03.299Z,22.07
2019-04-07T00:42:32.487Z,23.60
2019-04-07T00:45:01.186Z,25.70
2019-04-07T00:47:29.683Z,20.70
2019-04-07T00:49:58.772Z,20.77
2019-04-07T00:52:27.415Z,22.40
2019-04-07T00:54:56.204Z,19.90
2019-04-07T00:57:25.355Z,21.57
2019-04-07T00:59:54.066Z,19.50
2019-04-07T01:02:23.229Z,22.97
2019-04-07T01:04:51.851Z,21.30
2019-04-07T01:07:20.423Z,20.50
2019-04-07T01:09:49.506Z,21.73
2019-04-07T01:12:18.305Z,19.90
2019-04-07T01:14:46.962Z,20.93
2019-04-07T01:17:15.731Z,19.73
2019-04-07T01:19:45.444Z,22.40
2019-04-07T01:22:14.420Z,20.17
2019-04-07T01:24:43.167Z,22.70
2019-04-07T01:27:11.702Z,20.10
2019-04-07T01:29:40.842Z,20.50
2019-04-07T01:32:10.206Z,20.63
2019-04-07T01:34:39.370Z,20.47
2019-04-07T01:37:08.062Z,22.57
2019-04-07T01:39:37.203Z,24.17
2019-04-07T01:42:25.625Z,22.47
2019-04-07T01:44:58.424Z,20.80
2019-04-07T01:47:40.631Z,22.33
2019-04-07T01:50:19.830Z,21.53
2019-04-07T01:52:53.400Z,19.90
2019-04-07T01:55:26.859Z,20.50
2019-04-07T01:58:03.126Z,20.40
2019-04-07T02:00:42.909Z,21.57
2019-04-07T02:03:18.897Z,19.97
2019-04-07T02:06:05.985Z,19.03
2019-04-07T02:08:46.310Z,20.93
2019-04-07T02:11:19.220Z,20.20
2019-04-07T02:14:05.951Z,20.37
2019-04-07T02:16:42.081Z,19.70
2019-04-07T02:19:12.370Z,19.53
2019-04-07T02:21:59.154Z,18.17
2019-04-07T02:24:29.944Z,21.67
2019-04-07T02:27:09.879Z,21.07
2019-04-07T02:29:52.812Z,19.00
2019-04-07T02:32:23.114Z,21.83
2019-04-07T02:34:55.999Z,18.80
2019-04-07T02:37:38.741Z,20.67
2019-04-07T02:40:09.691Z,19.43
2019-04-07T02:42:43.014Z,19.60
2019-04-07T02:45:13.940Z,19.50
2019-04-07T02:47:51.262Z,18.30
2019-04-07T02:50:22.007Z,17.33
2019-04-07T02:52:52.879Z,20.23
2019-04-07T02:55:39.470Z,19.43
2019-04-07T02:58:21.602Z,18.83
2019-04-07T03:01:08.059Z,19.27
2019-04-07T03:03:39.178Z,20.97
2019-04-07T03:06:10.054Z,20.17
2019-04-07T03:08:46.160Z,19.17
2019-04-07T03:11:16.344Z,17.37
2019-04-07T03:13:56.157Z,19.87
2019-04-07T03:16:42.685Z,19.27
2019-04-07T03:19:13.138Z,18.93
2019-04-07T03:22:00.943Z,18.03
2019-04-07T03:24:31.323Z,15.93
2019-04-07T03:27:17.997Z,16.90
2019-04-07T03:29:49.312Z,17.37
2019-04-07T03:32:38.133Z,19.70
2019-04-07T03:35:12.613Z,17.27
2019-04-07T03:37:49.255Z,16.00
2019-04-07T03:40:31.582Z,15.67
2019-04-07T03:43:14.001Z,16.60
2019-04-07T03:45:44.217Z,16.30
2019-04-07T03:48:21.082Z,15.17
2019-04-07T03:51:06.884Z,17.00
2019-04-07T03:53:56.001Z,17.00
2019-04-07T03:56:35.805Z,13.47
2019-04-07T03:59:16.222Z,12.87
2019-04-07T04:02:01.888Z,14.93
2019-04-07T04:04:32.311Z,14.17
2019-04-07T04:07:20.186Z,13.80
2019-04-07T04:09:44.015Z,16.53
2019-04-07T04:12:15.044Z,13.73
2019-04-07T04:14:45.490Z,14.37
2019-04-07T04:17:14.093Z,13.60
2019-04-07T04:19:42.816Z,13.23
2019-04-07T04:22:11.629Z,14.43
2019-04-07T04:24:40.311Z,15.47
2019-04-07T04:27:08.784Z,14.20
2019-04-07T04:29:37.455Z,14.73
2019-04-07T04:32:06.098Z,14.80
2019-04-07T04:34:34.763Z,13.80
2019-04-07T04:37:03.945Z,16.00
2019-04-07T04:39:33.449Z,14.87
2019-04-07T04:42:02.049Z,16.57
2019-04-07T04:44:31.708Z,15.40
2019-04-07T04:47:01.479Z,12.77
2019-04-07T04:49:30.825Z,14.57
2019-04-07T04:52:00.327Z,13.30
2019-04-07T04:54:29.110Z,14.03
2019-04-07T04:56:57.685Z,13.63
2019-04-07T04:59:26.160Z,15.43
2019-04-07T05:01:55.380Z,14.57
2019-04-07T05:04:24.139Z,14.87
2019-04-07T05:06:53.558Z,14.40
2019-04-07T05:09:22.207Z,14.63
2019-04-07T05:11:51.377Z,13.40
2019-04-07T05:14:20.012Z,14.97
2019-04-07T05:16:49.134Z,14.90
2019-04-07T05:19:18.207Z,16.03
2019-04-07T05:21:46.999Z,15.27
2019-04-07T05:24:15.832Z,13.00
2019-04-07T05:26:44.552Z,13.40
2019-04-07T05:29:13.594Z,14.33
2019-04-07T05:31:42.347Z,16.10
2019-04-07T05:34:10.914Z,14.40
2019-04-07T05:36:40.112Z,15.77
2019-04-07T05:39:10.222Z,13.63
2019-04-07T05:41:38.893Z,13.27
2019-04-07T05:44:07.733Z,12.87
2019-04-07T05:46:40.295Z,13.20
2019-04-07T05:49:06.691Z,12.13
2019-04-07T05:51:35.382Z,13.70
2019-04-07T05:54:04.247Z,11.97
2019-04-07T05:56:32.714Z,12.83
2019-04-07T05:59:01.797Z,13.27
2019-04-07T06:01:31.238Z,15.70
2019-04-07T06:04:00.020Z,14.83
2019-04-07T06:18:17.307Z,14.97
2019-04-07T06:20:46.670Z,13.37
2019-04-07T06:23:15.968Z,14.37
2019-04-07T06:25:45.158Z,11.33
2019-04-07T06:28:17.261Z,11.87
2019-04-07T06:30:44.985Z,11.03
2019-04-07T06:33:14.005Z,10.77
2019-04-07T06:35:44.987Z,10.97
2019-04-07T06:38:13.269Z,12.23
2019-04-07T06:40:41.996Z,11.43
2019-04-07T06:43:10.542Z,10.00
2019-04-07T06:45:40.920Z,13.80
2019-04-07T06:48:11.417Z,10.33
2019-04-07T06:50:59.722Z,12.67
2019-04-07T06:53:46.755Z,13.70
2019-04-07T06:56:19.711Z,9.83
2019-04-07T06:58:55.826Z,10.53
2019-04-07T07:01:28.532Z,9.70
2019-04-07T07:04:14.602Z,10.63
2019-04-07T07:06:47.159Z,10.80
2019-04-07T07:09:16.717Z,10.63
2019-04-07T07:12:01.980Z,9.00
2019-04-07T07:14:43.270Z,10.10
2019-04-07T07:17:07.527Z,9.63
2019-04-07T07:19:37.985Z,9.50
2019-04-07T07:22:16.008Z,8.87
2019-04-07T07:24:46.832Z,10.70
2019-04-07T07:27:15.369Z,9.47
2019-04-07T07:29:45.964Z,9.80
2019-04-07T07:32:14.845Z,9.03
2019-04-07T07:34:43.452Z,8.50
2019-04-07T07:37:12.570Z,9.83
2019-04-07T07:39:42.663Z,11.40
2019-04-07T07:42:12.183Z,8.58
2019-04-07T07:44:41.738Z,8.28
2019-04-07T07:47:11.859Z,9.45
2019-04-07T07:49:41.500Z,8.90
2019-04-07T07:52:11.637Z,8.50
2019-04-07T07:54:41.025Z,8.50
2019-04-07T07:57:09.566Z,9.43
2019-04-07T07:59:39.329Z,10.13
2019-04-07T08:02:08.610Z,9.80
2019-04-07T08:04:37.758Z,8.63
2019-04-07T08:07:06.684Z,8.03
2019-04-07T08:09:35.302Z,9.05
2019-04-07T08:12:03.887Z,10.03
2019-04-07T08:14:32.526Z,9.45
2019-04-07T08:17:03.350Z,9.58
2019-04-07T08:19:31.761Z,9.05
2019-04-07T08:22:00.659Z,9.65
2019-04-07T08:24:29.361Z,9.15
2019-04-07T08:26:59.031Z,10.60
2019-04-07T08:29:28.066Z,9.18
2019-04-07T08:31:56.665Z,9.15
2019-04-07T08:34:25.495Z,8.95
2019-04-07T08:36:54.171Z,9.10
2019-04-07T08:39:25.616Z,11.30
2019-04-07T08:41:52.964Z,9.83
2019-04-07T08:44:21.630Z,9.23
2019-04-07T08:46:50.808Z,9.18
2019-04-07T08:49:23.593Z,10.82
2019-04-07T08:51:49.647Z,11.30
2019-04-07T08:54:18.443Z,10.80
2019-04-07T08:56:47.931Z,9.08
2019-04-07T08:59:17.314Z,7.75
2019-04-07T09:01:47.066Z,8.60
2019-04-07T09:04:17.628Z,8.33
2019-04-07T09:06:46.620Z,7.33
2019-04-07T09:09:15.675Z,8.33
2019-04-07T09:11:44.260Z,8.10
2019-04-07T09:14:15.100Z,6.62
2019-04-07T09:17:01.183Z,6.70
2019-04-07T09:19:49.783Z,6.65
2019-04-07T09:22:32.649Z,8.05
2019-04-07T09:25:20.349Z,6.90
2019-04-07T09:27:59.691Z,9.13
2019-04-07T09:30:39.089Z,7.78
2019-04-07T09:33:27.725Z,7.50
2019-04-07T09:36:04.121Z,8.93
2019-04-07T09:38:51.298Z,7.08
2019-04-07T09:41:36.460Z,7.95
2019-04-07T09:44:24.175Z,6.60
2019-04-07T09:47:11.249Z,7.22
2019-04-07T09:49:58.454Z,6.72
2019-04-07T09:52:29.397Z,8.88
2019-04-07T09:55:16.682Z,6.83
2019-04-07T09:57:56.057Z,6.78
2019-04-07T10:00:29.965Z,7.33
2019-04-07T10:03:02.355Z,8.00
2019-04-07T10:05:32.014Z,10.88
2019-04-07T10:08:20.385Z,8.70
2019-04-07T10:11:05.931Z,7.62
2019-04-07T10:13:49.551Z,8.58
2019-04-07T10:16:20.099Z,9.38
2019-04-07T10:18:50.923Z,9.87
2019-04-07T10:21:38.241Z,8.30
2019-04-07T10:24:08.479Z,9.18
2019-04-07T10:26:55.258Z,9.05
2019-04-07T10:29:43.884Z,8.38
2019-04-07T10:32:17.812Z,8.38
2019-04-07T10:34:48.495Z,8.58
2019-04-07T10:37:31.468Z,8.75
2019-04-07T10:40:02.965Z,9.15
2019-04-07T10:42:50.204Z,8.98
2019-04-07T10:45:35.443Z,10.80
2019-04-07T10:48:24.515Z,7.53
2019-04-07T10:51:10.434Z,7.33
2019-04-07T10:53:56.211Z,7.95
2019-04-07T10:56:26.607Z,7.10
2019-04-07T10:59:13.769Z,8.38
2019-04-07T11:01:44.532Z,7.58
2019-04-07T11:04:17.463Z,6.75
2019-04-07T11:06:59.174Z,6.40
2019-04-07T11:09:45.013Z,6.08
2019-04-07T11:12:16.159Z,6.40
2019-04-07T11:14:49.957Z,7.37
2019-04-07T11:17:29.256Z,8.58
2019-04-07T11:20:16.950Z,9.13
2019-04-07T11:23:03.007Z,6.92
2019-04-07T11:25:37.114Z,7.62
2019-04-07T11:28:24.241Z,7.15
2019-04-07T11:31:12.886Z,7.10
2019-04-07T11:33:48.726Z,6.20
2019-04-07T11:36:31.062Z,6.28
2019-04-07T11:39:06.981Z,4.85
2019-04-07T11:41:47.098Z,5.03
2019-04-07T11:44:20.423Z,5.17
2019-04-07T11:46:50.856Z,5.62
2019-04-07T11:49:27.219Z,5.10
2019-04-07T11:52:03.672Z,5.28
2019-04-07T11:54:37.027Z,5.83
2019-04-07T11:57:16.192Z,5.17
2019-04-07T11:59:46.394Z,4.37
2019-04-07T12:02:28.587Z,5.95
2019-04-07T12:05:05.426Z,6.10
2019-04-07T12:07:50.712Z,5.23
2019-04-07T12:10:20.310Z,3.83
2019-04-07T12:12:50.492Z,6.33
2019-04-07T12:15:36.927Z,3.73
2019-04-07T12:18:23.443Z,2.73
2019-04-07T12:21:09.132Z,4.03
2019-04-07T12:23:45.287Z,4.07
2019-04-07T12:26:21.091Z,3.47
2019-04-07T12:28:56.855Z,3.13
2019-04-07T12:31:36.301Z,4.07
2019-04-07T12:34:09.457Z,4.57
2019-04-07T12:36:38.664Z,2.93
2019-04-07T12:39:09.450Z,3.80
2019-04-07T12:41:40.117Z,2.90
2019-04-07T12:44:10.427Z,4.10
2019-04-07T12:46:49.723Z,2.57
2019-04-07T12:49:20.812Z,3.53
2019-04-07T12:52:09.741Z,2.80
2019-04-07T12:54:52.552Z,2.67
2019-04-07T12:57:26.168Z,2.00
2019-04-07T12:59:57.899Z,5.50
2019-04-07T13:02:28.547Z,2.60
2019-04-07T13:05:03.887Z,2.43
2019-04-07T13:07:33.549Z,3.73
2019-04-07T13:10:07.262Z,2.20
2019-04-07T13:12:41.142Z,2.30
2019-04-07T13:15:14.147Z,4.23
2019-04-07T13:17:46.342Z,2.10
2019-04-07T13:20:26.819Z,2.97
2019-04-07T13:23:02.923Z,2.20
2019-04-07T13:25:42.866Z,2.23
2019-04-07T13:28:14.182Z,2.33
2019-04-07T13:30:54.665Z,2.00
2019-04-07T13:33:41.447Z,2.00
2019-04-07T13:36:23.645Z,5.87
2019-04-07T13:38:57.840Z,2.17
2019-04-07T13:41:40.887Z,4.73
2019-04-07T13:44:13.047Z,2.43
2019-04-07T13:46:55.409Z,2.63
2019-04-07T13:49:42.179Z,2.07
2019-04-07T13:52:22.200Z,2.53
2019-04-07T13:54:59.105Z,3.13
2019-04-07T13:57:32.154Z,2.83
2019-04-07T14:00:20.153Z,2.43
2019-04-07T14:03:08.840Z,2.40
2019-04-07T14:05:40.201Z,2.70
2019-04-07T14:08:28.864Z,2.90
2019-04-07T14:11:04.352Z,2.30
2019-04-07T14:13:42.439Z,2.27
2019-04-07T14:16:12.744Z,2.77
2019-04-07T14:18:54.362Z,2.13
2019-04-07T14:21:35.638Z,2.83
2019-04-07T14:24:08.127Z,2.10
2019-04-07T14:26:38.824Z,2.30
2019-04-07T14:29:15.330Z,4.27
2019-04-07T14:32:02.246Z,2.43
2019-04-07T14:34:32.747Z,2.97
2019-04-07T14:37:09.862Z,4.70
2019-04-07T14:39:43.405Z,6.13
2019-04-07T14:42:30.483Z,2.10
2019-04-07T14:45:07.773Z,4.00
2019-04-07T14:47:53.508Z,4.53
2019-04-07T14:50:29.899Z,2.10
2019-04-07T14:53:00.721Z,2.63
2019-04-07T14:55:32.395Z,2.10
2019-04-07T14:58:06.683Z,2.07
2019-04-07T15:00:52.060Z,2.70
2019-04-07T15:03:21.370Z,2.60
2019-04-07T15:05:56.343Z,2.10
2019-04-07T15:08:31.943Z,3.77
2019-04-07T15:11:04.643Z,4.43
2019-04-07T15:13:33.229Z,7.93
2019-04-07T15:16:02.369Z,2.57
2019-04-07T15:18:31.027Z,13.97
2019-04-07T15:20:59.621Z,14.50
2019-04-07T15:23:30.981Z,2.10
2019-04-07T15:25:59.043Z,3.70
2019-04-07T15:28:30.687Z,2.30
2019-04-07T15:30:58.813Z,2.27
2019-04-07T15:33:31.412Z,1.97
2019-04-07T15:35:58.840Z,8.17
2019-04-07T15:38:28.498Z,2.67
2019-04-07T15:40:58.911Z,3.63
2019-04-07T15:43:27.918Z,2.27
2019-04-07T15:45:56.853Z,3.60
2019-04-07T15:48:26.868Z,3.67
2019-04-07T15:50:56.209Z,7.97
2019-04-07T15:53:25.584Z,3.93
2019-04-07T15:56:02.067Z,3.37
2019-04-07T15:58:26.809Z,4.83
2019-04-07T16:00:54.897Z,6.10
2019-04-07T16:03:23.444Z,3.73
2019-04-07T16:05:52.371Z,3.83
2019-04-07T16:08:20.963Z,4.40
2019-04-07T16:10:52.076Z,5.20
2019-04-07T16:13:19.838Z,2.40
2019-04-07T16:15:50.954Z,1.90
2019-04-07T16:18:18.986Z,1.50
2019-04-07T16:20:48.352Z,2.20
2019-04-07T16:23:18.475Z,2.43
2019-04-07T16:25:47.526Z,4.10
2019-04-07T16:28:16.317Z,3.37
2019-04-07T16:30:48.637Z,3.00
2019-04-07T16:33:15.303Z,2.30
2019-04-07T16:35:48.534Z,4.50
2019-04-07T16:38:14.231Z,3.17
2019-04-07T16:40:43.469Z,2.47
2019-04-07T16:43:15.407Z,2.37
2019-04-07T16:45:45.611Z,2.53
2019-04-07T16:48:12.851Z,3.00
2019-04-07T16:50:41.819Z,6.03
2019-04-07T16:53:10.751Z,2.60
2019-04-07T16:55:41.608Z,2.83
2019-04-07T16:58:10.358Z,2.83
2019-04-07T17:00:39.798Z,2.20
2019-04-07T17:03:09.875Z,1.90
2019-04-07T17:05:39.693Z,4.27
2019-04-07T17:08:08.658Z,5.17
2019-04-07T17:10:37.475Z,2.63
2019-04-07T17:13:16.970Z,2.80
2019-04-07T17:15:39.548Z,4.50
2019-04-07T17:18:10.229Z,2.60
2019-04-07T17:20:38.892Z,2.60
2019-04-07T17:23:07.443Z,2.30
2019-04-07T17:25:36.136Z,3.03
2019-04-07T17:28:06.381Z,5.50
2019-04-07T17:30:37.909Z,14.17
2019-04-07T17:33:06.462Z,13.10
2019-04-07T17:35:35.767Z,11.47
2019-04-07T17:38:06.899Z,4.70
2019-04-07T17:40:37.780Z,4.50
2019-04-07T17:43:28.273Z,2.53
2019-04-07T17:46:07.278Z,3.10
2019-04-07T17:48:50.421Z,2.63
2019-04-07T17:51:15.527Z,4.37
2019-04-07T17:53:48.479Z,3.63
2019-04-07T17:56:27.267Z,3.20
2019-04-07T17:58:59.824Z,3.63
2019-04-07T18:01:31.259Z,3.43
2019-04-07T18:04:13.993Z,3.30
2019-04-07T18:06:48.131Z,2.73
2019-04-07T18:09:20.912Z,4.27
2019-04-07T18:11:50.219Z,2.77
2019-04-07T18:14:37.357Z,3.43
2019-04-07T18:17:10.134Z,3.00
2019-04-07T18:19:43.196Z,3.27
2019-04-07T18:22:13.728Z,5.10
2019-04-07T18:24:44.889Z,3.73
2019-04-07T18:27:23.819Z,6.30
2019-04-07T18:30:03.504Z,8.77
2019-04-07T18:32:37.339Z,3.43
2019-04-07T18:35:11.117Z,4.17
2019-04-07T18:37:52.784Z,4.83
2019-04-07T18:40:38.659Z,6.57
2019-04-07T18:43:13.835Z,4.87
2019-04-07T18:45:52.217Z,5.20
2019-04-07T18:48:28.838Z,7.63
2019-04-07T18:51:12.610Z,9.23
2019-04-07T18:54:02.649Z,5.83
2019-04-07T18:56:47.448Z,6.67
2019-04-07T18:59:20.459Z,3.37
2019-04-07T19:01:51.072Z,4.30
2019-04-07T19:04:39.437Z,7.50
2019-04-07T19:07:09.808Z,7.50
2019-04-07T19:09:41.109Z,5.10
2019-04-07T19:12:18.970Z,4.63
2019-04-07T19:15:07.903Z,5.57
2019-04-07T19:17:37.191Z,5.13
2019-04-07T19:20:17.314Z,4.30
2019-04-07T19:23:00.204Z,4.73
2019-04-07T19:25:48.955Z,4.13
2019-04-07T19:28:19.055Z,4.17
2019-04-07T19:30:52.539Z,7.03
2019-04-07T19:33:26.854Z,6.50
2019-04-07T19:36:03.111Z,6.00
2019-04-07T19:38:43.241Z,8.30
2019-04-07T19:41:14.125Z,9.70
2019-04-07T19:44:00.769Z,5.47
2019-04-07T19:46:31.542Z,6.73
2019-04-07T19:49:07.873Z,5.70
2019-04-07T19:51:54.805Z,5.23
2019-04-07T19:54:27.677Z,4.60
2019-04-07T19:57:14.154Z,5.43
2019-04-07T19:59:52.827Z,5.27
2019-04-07T20:02:24.041Z,6.10
2019-04-07T20:04:55.012Z,6.93
2019-04-07T20:07:31.550Z,5.03
2019-04-07T20:10:21.569Z,5.77
2019-04-07T20:12:52.001Z,4.90
2019-04-07T20:15:22.250Z,8.50
2019-04-07T20:18:08.881Z,8.73
2019-04-07T20:20:43.701Z,9.87
2019-04-07T20:23:18.384Z,8.73
2019-04-07T20:26:07.963Z,8.47
2019-04-07T20:28:45.043Z,8.27
2019-04-07T20:31:31.330Z,7.00
2019-04-07T20:34:03.900Z,5.83
2019-04-07T20:36:33.832Z,7.63
2019-04-07T20:39:09.499Z,4.97
2019-04-07T20:41:45.671Z,5.17
2019-04-07T20:44:15.953Z,6.17
2019-04-07T20:46:49.202Z,7.43
2019-04-07T20:49:22.246Z,5.30
2019-04-07T20:51:58.526Z,5.47
2019-04-07T20:54:35.654Z,5.80
2019-04-07T20:57:09.251Z,7.83
2019-04-07T20:59:50.146Z,6.40
2019-04-07T21:02:34.080Z,5.37
2019-04-07T21:05:07.095Z,5.87
2019-04-07T21:07:57.777Z,7.53
2019-04-07T21:10:27.804Z,6.40
2019-04-07T21:13:16.754Z,7.60
2019-04-07T21:15:59.400Z,5.00
2019-04-07T21:18:39.123Z,6.57
2019-04-07T21:21:25.567Z,5.83
2019-04-07T21:23:55.832Z,4.47
2019-04-07T21:26:27.491Z,4.97
2019-04-07T21:28:58.814Z,5.43
2019-04-07T21:31:29.082Z,5.53
2019-04-07T21:34:08.767Z,6.27
2019-04-07T21:36:41.826Z,6.63
2019-04-07T21:39:12.927Z,6.47
2019-04-07T21:41:59.742Z,6.00
2019-04-07T21:44:46.162Z,5.90
2019-04-07T21:47:34.646Z,11.57
2019-04-07T21:50:21.882Z,8.23
2019-04-07T21:52:55.370Z,8.27
2019-04-07T21:55:40.161Z,9.07
2019-04-07T21:58:10.274Z,8.83
2019-04-07T22:00:55.966Z,8.17
2019-04-07T22:03:32.079Z,8.53
2019-04-07T22:06:08.906Z,7.30
2019-04-07T22:08:46.529Z,7.90
2019-04-07T22:11:15.524Z,8.43
2019-04-07T22:13:44.893Z,8.43
2019-04-07T22:16:14.286Z,10.00
2019-04-07T22:18:43.078Z,9.57
2019-04-07T22:21:11.815Z,10.17
2019-04-07T22:23:40.359Z,13.73
2019-04-07T22:26:12.655Z,13.53
2019-04-07T22:28:39.474Z,12.67
2019-04-07T22:31:08.904Z,12.67
2019-04-07T22:33:38.951Z,11.70
2019-04-07T22:36:11.139Z,13.03
2019-04-07T22:38:37.890Z,13.67
2019-04-07T22:41:07.400Z,13.73
2019-04-07T22:43:36.770Z,14.30
2019-04-07T22:46:12.687Z,16.07
2019-04-07T22:48:36.413Z,14.00
2019-04-07T22:51:10.991Z,15.40
2019-04-07T22:53:35.691Z,15.07
2019-04-07T22:56:07.368Z,14.53
2019-04-07T22:58:34.634Z,15.80
2019-04-07T23:01:03.199Z,15.23
2019-04-07T23:03:32.507Z,13.13
2019-04-07T23:06:01.145Z,15.77
2019-04-07T23:08:29.765Z,14.53
2019-04-07T23:10:58.434Z,13.37
2019-04-07T23:13:27.928Z,13.77
2019-04-07T23:16:07.307Z,14.80
2019-04-07T23:18:27.583Z,14.93
2019-04-07T23:20:56.166Z,13.33
2019-04-07T23:23:24.727Z,13.90
2019-04-07T23:25:53.574Z,13.53
2019-04-07T23:28:22.938Z,16.50
2019-04-07T23:30:51.611Z,16.93
2019-04-07T23:33:20.242Z,15.73
2019-04-07T23:35:49.007Z,15.93
2019-04-07T23:38:17.804Z,15.27
2019-04-07T23:40:46.562Z,17.37
2019-04-07T23:43:15.286Z,18.83
2019-04-07T23:45:44.181Z,15.27
2019-04-07T23:48:13.729Z,17.10
2019-04-07T23:50:42.390Z,16.53
2019-04-07T23:53:47.478Z,15.93
2019-04-07T23:56:15.978Z,16.90
2019-04-07T23:58:45.552Z,15.93
